Time;durP1;ratioP1;P1;durP2;ratioP2;P2;SDS_P1;SDS_P2;PMS_P1;PMS_P2;Temp;Humidity;BMP_temperature;BMP_pressure;BME280_temperature;BME280_humidity;BME280_pressure;Samples;Min_cycle;Max_cycle;Signal;HPM_P1;HPM_P2
2023/06/13 00:00:11;;;;;;;5.00;2.95;;;18.60;79.00;;;;;;4986825;28;20231;-78
2023/06/13 00:02:39;;;;;;;4.90;3.35;;;18.50;80.60;;;;;;4968599;28;20244;-78
2023/06/13 00:05:17;;;;;;;5.28;3.10;;;18.40;80.20;;;;;;4984557;28;20252;-80
2023/06/13 00:07:45;;;;;;;4.32;3.33;;;18.40;82.20;;;;;;4985510;28;20555;-77
2023/06/13 00:10:14;;;;;;;5.97;3.10;;;18.30;80.60;;;;;;4987282;28;20228;-79
2023/06/13 00:12:44;;;;;;;8.77;3.97;;;18.30;79.60;;;;;;4989609;28;20674;-79
2023/06/13 00:15:11;;;;;;;6.05;3.70;;;18.20;81.50;;;;;;4981568;28;20197;-80
2023/06/13 00:17:41;;;;;;;8.50;3.60;;;18.20;82.30;;;;;;4974974;28;20192;-79
2023/06/13 00:20:09;;;;;;;3.15;2.75;;;18.20;82.50;;;;;;4990519;28;20205;-81
2023/06/13 00:22:38;;;;;;;5.60;3.20;;;18.10;80.90;;;;;;5005426;28;20189;-79
2023/06/13 00:25:05;;;;;;;4.95;3.22;;;18.00;83.40;;;;;;4990625;28;20193;-79
2023/06/13 00:27:33;;;;;;;6.93;3.70;;;18.10;82.50;;;;;;4973687;28;20639;-79
2023/06/13 00:30:03;;;;;;;3.70;3.30;;;18.00;82.40;;;;;;4990444;28;20308;-81
2023/06/13 00:32:33;;;;;;;4.30;3.20;;;18.00;82.90;;;;;;4972244;28;20227;-79
2023/06/13 00:35:00;;;;;;;5.00;4.50;;;18.00;83.00;;;;;;4989324;28;20197;-78
2023/06/13 00:37:34;;;;;;;5.73;3.10;;;17.70;84.60;;;;;;4969978;28;21073;-80
2023/06/13 00:40:02;;;;;;;6.40;3.70;;;17.70;85.30;;;;;;4992296;28;20280;-79
2023/06/13 00:42:31;;;;;;;4.40;3.10;;;17.70;85.40;;;;;;4985178;28;20197;-79
2023/06/13 00:45:21;;;;;;;5.47;3.17;;;17.70;86.90;;;;;;4985281;28;20288;-78
2023/06/13 00:47:59;;;;;;;7.27;3.63;;;17.60;86.20;;;;;;4988981;28;20561;-79
2023/06/13 00:50:31;;;;;;;5.72;3.40;;;17.60;87.40;;;;;;4988684;28;20243;-79
2023/06/13 00:53:16;;;;;;;5.00;3.60;;;17.50;87.00;;;;;;4996421;28;20331;-80
2023/06/13 00:55:46;;;;;;;5.18;3.47;;;17.60;88.40;;;;;;4986741;28;20323;-82
2023/06/13 00:58:15;;;;;;;7.15;3.38;;;17.60;87.70;;;;;;4972154;28;20216;-79
2023/06/13 01:00:44;;;;;;;4.90;3.20;;;17.50;87.60;;;;;;4983645;28;20271;-79
2023/06/13 01:03:15;;;;;;;4.63;3.53;;;17.50;87.20;;;;;;4987916;28;20212;-81
2023/06/13 01:05:45;;;;;;;4.47;3.07;;;17.50;87.90;;;;;;4989377;28;20240;-80
2023/06/13 01:08:19;;;;;;;5.17;3.33;;;17.20;86.70;;;;;;4970391;28;20673;-78
2023/06/13 01:10:59;;;;;;;5.45;3.00;;;17.10;88.20;;;;;;5004414;28;20695;-81
2023/06/13 01:13:47;;;;;;;4.67;3.13;;;17.10;88.70;;;;;;4987903;28;20680;-78
2023/06/13 01:16:40;;;;;;;3.60;3.17;;;17.10;90.20;;;;;;4980456;28;20205;-77
2023/06/13 01:19:18;;;;;;;5.83;3.83;;;17.20;90.70;;;;;;5005850;28;20247;-77
2023/06/13 01:21:48;;;;;;;6.03;3.15;;;17.10;90.90;;;;;;4983619;28;20216;-77
2023/06/13 01:24:27;;;;;;;7.60;4.57;;;17.10;90.30;;;;;;4987276;28;20918;-78
2023/06/13 01:26:59;;;;;;;5.37;3.53;;;17.00;90.50;;;;;;4988533;28;20660;-79
2023/06/13 01:29:28;;;;;;;6.80;3.70;;;17.00;90.30;;;;;;4990764;28;20185;-80
2023/06/13 01:31:57;;;;;;;5.80;3.40;;;16.90;90.30;;;;;;4991831;28;20615;-77
2023/06/13 01:34:25;;;;;;;4.03;3.23;;;16.90;90.60;;;;;;4990141;28;20582;-78
2023/06/13 01:36:52;;;;;;;4.07;3.27;;;16.80;91.10;;;;;;4988194;28;21637;-78
2023/06/13 01:39:20;;;;;;;7.87;4.20;;;16.80;91.50;;;;;;5005288;28;20207;-79
2023/06/13 01:41:47;;;;;;;5.43;3.77;;;16.80;91.60;;;;;;5009705;28;20201;-78
2023/06/13 01:44:18;;;;;;;4.47;3.37;;;16.80;91.70;;;;;;5006777;28;20200;-78
2023/06/13 01:47:05;;;;;;;7.80;3.57;;;16.80;92.10;;;;;;4990737;28;20226;-80
2023/06/13 01:49:51;;;;;;;5.40;3.40;;;16.80;91.30;;;;;;4991600;28;20589;-77
2023/06/13 01:52:44;;;;;;;4.27;3.47;;;16.80;91.70;;;;;;5007421;28;20203;-78
2023/06/13 01:55:21;;;;;;;5.70;3.50;;;16.80;91.40;;;;;;4988903;28;20196;-78
2023/06/13 01:57:57;;;;;;;12.57;3.60;;;16.80;91.60;;;;;;5002238;28;21147;-78
2023/06/13 02:00:24;;;;;;;4.60;3.37;;;16.80;91.80;;;;;;4990678;28;20216;-79
2023/06/13 02:02:53;;;;;;;5.00;3.60;;;16.80;91.30;;;;;;5004816;28;20657;-78
2023/06/13 02:05:20;;;;;;;4.53;3.40;;;16.70;91.90;;;;;;4990977;28;20283;-78
2023/06/13 02:07:47;;;;;;;6.23;3.40;;;16.70;91.50;;;;;;5004868;28;20450;-78
2023/06/13 02:10:18;;;;;;;5.97;3.50;;;16.70;92.20;;;;;;4990683;28;20200;-77
2023/06/13 02:12:45;;;;;;;5.03;3.63;;;16.70;92.30;;;;;;4985583;28;20296;-77
2023/06/13 02:15:12;;;;;;;7.23;2.97;;;16.70;91.90;;;;;;4991744;28;20707;-79
2023/06/13 02:17:40;;;;;;;4.60;3.17;;;16.70;92.20;;;;;;4991203;28;20193;-82
2023/06/13 02:20:08;;;;;;;3.80;3.03;;;16.70;92.70;;;;;;5007662;28;20665;-80
2023/06/13 02:22:35;;;;;;;5.30;3.63;;;16.70;92.00;;;;;;4988992;28;20596;-80
2023/06/13 02:25:04;;;;;;;5.93;3.47;;;16.70;92.00;;;;;;4989046;28;20552;-81
2023/06/13 02:27:31;;;;;;;4.67;3.37;;;16.70;92.50;;;;;;4991872;28;20276;-82
2023/06/13 02:29:58;;;;;;;5.63;3.33;;;16.60;91.90;;;;;;4991087;28;20672;-81
2023/06/13 02:32:29;;;;;;;5.70;3.63;;;16.60;91.90;;;;;;5006227;28;20276;-79
2023/06/13 02:34:56;;;;;;;4.50;3.37;;;16.50;92.20;;;;;;4989841;28;20777;-80
2023/06/13 02:37:23;;;;;;;7.93;3.53;;;16.50;92.20;;;;;;4984130;28;20201;-80
2023/06/13 02:39:50;;;;;;;8.83;3.30;;;16.40;92.10;;;;;;4987502;28;20338;-79
2023/06/13 02:42:17;;;;;;;5.37;3.70;;;16.40;92.60;;;;;;5005418;28;20225;-81
2023/06/13 02:44:44;;;;;;;4.47;3.07;;;16.30;91.70;;;;;;4991295;28;20300;-80
2023/06/13 02:47:12;;;;;;;4.60;3.33;;;16.20;92.80;;;;;;4990954;28;20606;-79
2023/06/13 02:49:39;;;;;;;4.50;3.10;;;16.20;93.10;;;;;;4989457;28;20292;-82
2023/06/13 02:52:07;;;;;;;3.53;2.83;;;16.00;93.90;;;;;;4988652;28;20203;-81
2023/06/13 02:54:35;;;;;;;3.33;3.00;;;16.00;93.30;;;;;;4984168;28;20239;-86
2023/06/13 02:57:02;;;;;;;5.73;3.70;;;16.10;93.20;;;;;;4977761;28;20288;-87
2023/06/13 02:59:29;;;;;;;6.20;3.47;;;16.20;93.50;;;;;;4990764;28;20213;-86
2023/06/13 03:02:00;;;;;;;8.40;3.90;;;16.30;93.60;;;;;;4990258;28;20220;-85
2023/06/13 03:04:28;;;;;;;5.00;3.07;;;16.20;94.00;;;;;;4975201;28;20232;-84
2023/06/13 03:06:56;;;;;;;6.77;3.20;;;16.30;94.20;;;;;;4992521;28;20186;-84
2023/06/13 03:09:23;;;;;;;3.77;3.00;;;16.30;94.00;;;;;;4991842;28;20386;-84
2023/06/13 03:11:53;;;;;;;4.50;3.40;;;16.30;94.30;;;;;;4977634;28;20215;-84
2023/06/13 03:14:22;;;;;;;4.87;3.23;;;16.30;93.70;;;;;;4986221;28;20731;-85
2023/06/13 03:16:52;;;;;;;3.70;3.20;;;16.20;94.40;;;;;;4991521;28;20208;-85
2023/06/13 03:19:19;;;;;;;3.57;2.83;;;16.30;93.80;;;;;;4988363;28;20224;-85
2023/06/13 03:21:47;;;;;;;4.10;3.03;;;16.20;94.10;;;;;;4989914;28;20758;-85
2023/06/13 03:24:14;;;;;;;4.50;3.37;;;16.30;95.30;;;;;;5005634;28;20596;-86
2023/06/13 03:26:41;;;;;;;5.73;3.70;;;16.40;94.60;;;;;;4974919;28;20204;-86
2023/06/13 03:29:11;;;;;;;4.30;3.23;;;16.40;94.70;;;;;;5006102;28;20193;-86
2023/06/13 03:31:39;;;;;;;6.83;3.30;;;16.40;94.40;;;;;;4987519;28;20213;-86
2023/06/13 03:34:06;;;;;;;4.90;3.53;;;16.30;94.70;;;;;;4971856;28;20208;-88
2023/06/13 03:36:34;;;;;;;5.83;3.23;;;16.30;94.70;;;;;;4988691;28;20225;-85
2023/06/13 03:39:02;;;;;;;4.57;3.40;;;16.40;94.60;;;;;;4990633;28;20884;-87
2023/06/13 03:41:30;;;;;;;3.70;3.23;;;16.40;95.20;;;;;;4989253;28;20271;-89
2023/06/13 03:43:57;;;;;;;4.07;3.00;;;16.50;94.30;;;;;;4970679;28;20285;-88
2023/06/13 03:46:25;;;;;;;8.10;4.13;;;16.50;94.80;;;;;;4985114;28;20188;-86
2023/06/13 03:48:54;;;;;;;9.40;4.10;;;16.60;94.90;;;;;;4992747;28;20280;-87
2023/06/13 03:51:21;;;;;;;4.63;3.70;;;16.80;94.80;;;;;;4990217;28;20198;-87
2023/06/13 03:53:48;;;;;;;4.70;3.40;;;16.90;94.70;;;;;;4986256;28;20296;-84
2023/06/13 03:56:16;;;;;;;5.70;3.53;;;17.10;94.90;;;;;;4988071;28;20197;-85
2023/06/13 03:58:43;;;;;;;3.53;2.97;;;17.20;94.90;;;;;;5007350;28;20689;-87
2023/06/13 04:01:11;;;;;;;6.15;3.10;;;17.50;94.80;;;;;;4989950;28;20918;-80
2023/06/13 04:03:39;;;;;;;4.55;3.25;;;17.80;94.40;;;;;;5006749;28;20221;-83
2023/06/13 04:06:08;;;;;;;6.07;3.28;;;18.00;94.20;;;;;;4969327;28;20202;-78
2023/06/13 04:08:36;;;;;;;8.27;3.75;;;18.00;93.60;;;;;;4998276;28;20581;-80
2023/06/13 04:11:05;;;;;;;4.03;2.95;;;18.30;94.10;;;;;;4982986;28;20722;-77
2023/06/13 04:13:32;;;;;;;7.28;3.72;;;18.40;93.70;;;;;;4984105;28;20627;-80
2023/06/13 04:16:00;;;;;;;4.70;3.60;;;18.40;94.50;;;;;;4984136;28;20198;-79
2023/06/13 04:18:29;;;;;;;6.40;3.85;;;18.50;93.50;;;;;;4975463;28;20530;-79
2023/06/13 04:20:59;;;;;;;4.85;3.40;;;18.70;93.40;;;;;;4979780;28;20689;-80
2023/06/13 04:23:27;;;;;;;5.20;3.15;;;18.90;93.30;;;;;;4969386;28;20194;-78
2023/06/13 04:25:55;;;;;;;4.22;3.38;;;19.10;93.30;;;;;;4984163;28;20190;-79
2023/06/13 04:28:24;;;;;;;5.38;3.60;;;19.30;94.10;;;;;;4982186;28;20722;-78
2023/06/13 04:30:51;;;;;;;5.18;3.28;;;19.40;93.20;;;;;;4986058;28;20582;-81
2023/06/13 04:33:19;;;;;;;8.38;4.00;;;19.70;93.30;;;;;;4987057;28;20212;-81
2023/06/13 04:35:48;;;;;;;5.28;3.45;;;19.90;93.10;;;;;;4981088;28;20598;-81
2023/06/13 04:38:22;;;;;;;6.22;3.70;;;20.30;92.60;;;;;;4984556;28;20874;-77
2023/06/13 04:40:50;;;;;;;6.25;3.58;;;20.70;92.40;;;;;;4980785;28;20196;-77
2023/06/13 04:43:19;;;;;;;4.95;3.15;;;21.20;92.10;;;;;;4983940;28;20233;-77
2023/06/13 04:45:48;;;;;;;5.28;3.55;;;21.50;91.30;;;;;;4982387;28;20201;-79
2023/06/13 04:48:25;;;;;;;4.22;2.65;;;21.70;90.40;;;;;;4986104;28;20241;-77
2023/06/13 04:50:53;;;;;;;3.40;3.05;;;21.50;91.00;;;;;;4984127;28;20257;-76
2023/06/13 04:53:21;;;;;;;6.68;3.53;;;21.60;90.20;;;;;;4980051;28;20682;-79
2023/06/13 04:55:49;;;;;;;6.22;3.20;;;21.90;90.40;;;;;;4965793;28;20305;-76
2023/06/13 04:58:17;;;;;;;5.93;3.42;;;22.20;89.60;;;;;;4984307;28;20205;-77
2023/06/13 05:00:48;;;;;;;5.57;3.38;;;22.10;88.80;;;;;;4984080;28;20201;-78
2023/06/13 05:03:16;;;;;;;4.55;3.58;;;21.70;89.80;;;;;;4988237;28;20221;-77
2023/06/13 05:05:45;;;;;;;4.35;3.30;;;22.00;88.70;;;;;;4984686;28;20450;-77
2023/06/13 05:08:14;;;;;;;4.20;3.05;;;22.40;90.20;;;;;;5005406;28;20189;-74
2023/06/13 05:10:44;;;;;;;8.38;3.53;;;22.70;88.80;;;;;;4991850;28;20189;-77
2023/06/13 05:13:12;;;;;;;3.42;3.05;;;22.80;89.80;;;;;;4987905;28;20211;-77
2023/06/13 05:15:39;;;;;;;4.10;3.25;;;23.50;94.70;;;;;;4989599;28;20209;-76
2023/06/13 05:18:07;;;;;;;5.40;3.58;;;23.70;86.80;;;;;;4985350;28;20206;-75
2023/06/13 05:20:35;;;;;;;4.00;2.92;;;24.00;86.10;;;;;;4989030;28;20636;-73
2023/06/13 05:23:02;;;;;;;4.20;3.08;;;24.40;85.40;;;;;;4989890;28;20297;-75
2023/06/13 05:25:30;;;;;;;4.30;3.13;;;24.50;84.70;;;;;;4990229;28;20654;-74
2023/06/13 05:27:57;;;;;;;4.60;3.00;;;25.00;84.80;;;;;;4988479;28;20662;-72
2023/06/13 05:30:24;;;;;;;3.80;2.83;;;25.50;83.50;;;;;;4985007;28;20208;-73
2023/06/13 05:32:52;;;;;;;3.55;2.60;;;25.50;84.60;;;;;;4987551;28;20193;-73
2023/06/13 05:35:20;;;;;;;3.35;2.80;;;25.90;83.10;;;;;;4995010;28;20676;-74
2023/06/13 05:37:48;;;;;;;4.18;2.80;;;26.00;85.30;;;;;;4984424;28;20676;-74
2023/06/13 05:40:15;;;;;;;4.03;2.45;;;26.20;82.20;;;;;;4986678;28;20208;-76
2023/06/13 05:42:43;;;;;;;3.88;2.72;;;26.60;81.80;;;;;;4993443;28;20240;-76
2023/06/13 05:45:10;;;;;;;4.03;2.90;;;27.10;81.70;;;;;;4990417;28;20186;-75
2023/06/13 05:47:37;;;;;;;5.55;3.08;;;27.70;79.40;;;;;;4987378;28;20393;-75
2023/06/13 05:50:05;;;;;;;4.00;2.80;;;27.50;77.20;;;;;;4986071;28;20591;-75
2023/06/13 05:52:32;;;;;;;6.10;3.60;;;26.50;76.00;;;;;;4975499;28;20212;-73
2023/06/13 05:54:59;;;;;;;6.70;2.88;;;25.40;78.00;;;;;;5003060;28;20189;-77
2023/06/13 05:57:41;;;;;;;5.60;3.28;;;25.50;79.40;;;;;;4986664;28;20217;-76
2023/06/13 06:00:12;;;;;;;3.78;2.92;;;24.90;80.20;;;;;;4987565;28;20276;-76
2023/06/13 06:02:45;;;;;;;4.70;3.17;;;26.10;80.70;;;;;;4985997;28;20313;-77
2023/06/13 06:05:13;;;;;;;3.30;2.88;;;26.30;79.40;;;;;;4982822;28;20325;-77
2023/06/13 06:07:42;;;;;;;5.20;3.22;;;26.60;80.00;;;;;;4991059;28;20773;-76
2023/06/13 06:10:11;;;;;;;3.88;3.17;;;27.40;78.30;;;;;;4989018;28;20776;-74
2023/06/13 06:12:38;;;;;;;3.65;2.70;;;28.00;78.20;;;;;;5001127;28;20193;-76
2023/06/13 06:15:06;;;;;;;4.72;3.13;;;27.10;74.90;;;;;;4986092;28;20229;-77
2023/06/13 06:17:33;;;;;;;5.43;3.25;;;26.60;77.40;;;;;;4978232;28;20213;-77
2023/06/13 06:20:00;;;;;;;6.35;2.85;;;26.20;78.30;;;;;;4988817;28;20252;-77
2023/06/13 06:22:29;;;;;;;5.07;2.83;;;26.30;76.80;;;;;;4983720;28;20681;-76
2023/06/13 06:24:56;;;;;;;7.55;3.00;;;27.60;80.50;;;;;;4988347;28;20190;-76
2023/06/13 06:27:23;;;;;;;5.43;3.20;;;28.50;76.30;;;;;;4985511;28;20281;-76
2023/06/13 06:29:51;;;;;;;4.53;3.05;;;27.80;74.10;;;;;;4981913;28;20223;-77
2023/06/13 06:32:18;;;;;;;5.53;2.80;;;28.10;74.70;;;;;;4986060;28;20221;-78
2023/06/13 06:34:45;;;;;;;3.03;2.22;;;27.80;72.90;;;;;;5000504;28;20661;-79
2023/06/13 06:37:13;;;;;;;5.05;2.97;;;28.50;75.20;;;;;;4985943;28;20216;-77
2023/06/13 06:39:40;;;;;;;3.67;2.85;;;29.90;75.10;;;;;;4984576;28;20213;-77
2023/06/13 06:42:07;;;;;;;4.15;2.75;;;28.80;72.20;;;;;;4983454;28;20221;-78
2023/06/13 06:45:00;;;;;;;5.68;2.95;;;28.30;72.50;;;;;;4982769;28;20265;-78
2023/06/13 06:47:28;;;;;;;2.92;2.63;;;28.30;71.00;;;;;;4985217;28;20621;-77
2023/06/13 06:49:55;;;;;;;3.45;2.45;;;27.60;74.10;;;;;;4982877;28;20302;-77
2023/06/13 06:52:21;;;;;;;3.00;2.50;;;27.90;71.30;;;;;;4985448;28;20206;-76
2023/06/13 06:54:48;;;;;;;4.78;3.10;;;28.80;72.70;;;;;;4984831;28;20209;-76
2023/06/13 06:57:15;;;;;;;4.20;2.45;;;29.40;72.20;;;;;;4986707;28;20204;-78
2023/06/13 06:59:43;;;;;;;3.38;2.67;;;31.00;70.30;;;;;;4985171;28;20205;-75
2023/06/13 07:02:09;;;;;;;3.50;2.70;;;32.10;71.00;;;;;;4982298;28;20213;-77
2023/06/13 07:04:37;;;;;;;3.28;2.75;;;30.90;64.30;;;;;;4993731;28;20233;-77
2023/06/13 07:07:04;;;;;;;3.42;2.65;;;29.90;69.30;;;;;;5002924;28;20209;-79
2023/06/13 07:09:31;;;;;;;3.17;2.45;;;29.40;67.10;;;;;;4986336;28;20648;-77
2023/06/13 07:11:58;;;;;;;3.63;2.78;;;29.50;66.50;;;;;;4984263;28;20754;-77
2023/06/13 07:14:25;;;;;;;3.50;3.00;;;30.00;65.10;;;;;;4985681;28;20220;-77
2023/06/13 07:16:54;;;;;;;3.05;2.75;;;29.60;69.20;;;;;;5002612;28;20199;-77
2023/06/13 07:19:23;;;;;;;3.38;2.17;;;30.70;69.10;;;;;;4984510;28;20277;-75
2023/06/13 07:21:50;;;;;;;3.08;2.58;;;32.00;67.40;;;;;;4985643;28;20212;-71
2023/06/13 07:24:17;;;;;;;4.25;2.83;;;32.60;66.30;;;;;;5003918;28;20197;-70
2023/06/13 07:26:45;;;;;;;3.45;2.58;;;33.70;63.60;;;;;;5003196;28;20268;-70
2023/06/13 07:29:12;;;;;;;5.00;2.78;;;34.00;61.80;;;;;;4970118;28;20276;-75
2023/06/13 07:31:39;;;;;;;4.40;2.50;;;34.20;60.30;;;;;;4970215;28;20193;-75
2023/06/13 07:34:06;;;;;;;5.05;3.00;;;34.20;60.10;;;;;;5003193;28;20653;-75
2023/06/13 07:36:54;;;;;;;3.95;2.67;;;33.30;59.00;;;;;;5000971;28;20254;-75
2023/06/13 07:39:21;;;;;;;2.72;2.20;;;33.40;58.70;;;;;;4985155;28;20268;-76
2023/06/13 07:41:49;;;;;;;3.55;2.85;;;33.70;59.90;;;;;;5003475;28;20201;-76
2023/06/13 07:44:17;;;;;;;2.95;2.60;;;34.30;58.80;;;;;;5002608;28;20220;-76
2023/06/13 07:46:44;;;;;;;5.30;3.08;;;34.50;58.00;;;;;;4986075;28;20232;-75
2023/06/13 07:49:11;;;;;;;4.55;2.60;;;34.20;55.50;;;;;;4981847;28;20189;-75
2023/06/13 07:51:39;;;;;;;7.80;2.53;;;34.50;57.50;;;;;;5001387;28;20197;-75
2023/06/13 07:54:06;;;;;;;3.80;2.65;;;35.40;55.00;;;;;;4986116;28;20667;-75
2023/06/13 07:56:34;;;;;;;3.88;2.72;;;35.40;54.60;;;;;;4984800;28;20201;-74
2023/06/13 07:59:02;;;;;;;5.32;2.83;;;36.20;53.00;;;;;;4984016;28;20223;-76
2023/06/13 08:01:29;;;;;;;3.60;2.60;;;33.80;52.40;;;;;;4985718;28;20576;-73
2023/06/13 08:03:56;;;;;;;3.00;2.42;;;33.30;53.10;;;;;;4982759;28;20264;-74
2023/06/13 08:06:24;;;;;;;4.78;3.05;;;33.50;53.90;;;;;;4982749;28;20189;-74
2023/06/13 08:08:51;;;;;;;3.47;2.83;;;31.30;47.50;;;;;;5004700;28;20199;-73
2023/06/13 08:11:18;;;;;;;4.20;3.08;;;30.50;52.30;;;;;;5002688;28;20196;-74
2023/06/13 08:13:45;;;;;;;3.53;2.80;;;33.60;55.20;;;;;;4986621;28;20213;-73
2023/06/13 08:16:12;;;;;;;3.85;2.60;;;35.70;55.20;;;;;;4986112;28;20201;-73
2023/06/13 08:18:40;;;;;;;5.82;2.70;;;34.60;51.10;;;;;;5005300;28;20218;-74
2023/06/13 08:21:07;;;;;;;3.88;2.58;;;35.70;53.00;;;;;;4968751;28;20209;-75
2023/06/13 08:23:34;;;;;;;3.83;2.60;;;35.00;51.40;;;;;;4984801;28;20209;-78
2023/06/13 08:26:02;;;;;;;3.55;2.75;;;34.90;50.70;;;;;;4971743;28;20657;-76
2023/06/13 08:28:29;;;;;;;3.90;2.83;;;36.00;52.50;;;;;;4999052;28;20201;-77
2023/06/13 08:30:56;;;;;;;3.00;2.70;;;37.40;50.70;;;;;;4985330;28;20201;-76
2023/06/13 08:33:44;;;;;;;3.28;2.63;;;36.80;49.00;;;;;;4989196;28;20724;-76
2023/06/13 08:36:31;;;;;;;4.32;2.88;;;36.60;49.00;;;;;;4989222;28;20262;-76
2023/06/13 08:38:59;;;;;;;2.50;2.30;;;36.10;48.70;;;;;;5002453;28;20284;-76
2023/06/13 08:41:27;;;;;;;4.18;2.58;;;37.10;49.20;;;;;;4969883;28;20208;-74
2023/06/13 08:43:58;;;;;;;2.90;2.50;;;35.70;41.90;;;;;;4995380;28;20688;-74
2023/06/13 08:46:25;;;;;;;3.75;3.03;;;35.60;46.20;;;;;;4999623;28;20199;-75
2023/06/13 08:48:52;;;;;;;5.50;2.35;;;35.70;44.60;;;;;;4970630;28;20207;-77
2023/06/13 08:51:22;;;;;;;3.83;2.67;;;34.70;45.50;;;;;;4972355;28;20708;-76
2023/06/13 08:53:53;;;;;;;3.35;2.30;;;33.20;42.00;;;;;;4987245;28;20193;-76
2023/06/13 08:56:25;;;;;;;3.30;2.38;;;34.40;47.60;;;;;;4992263;28;20274;-76
2023/06/13 08:58:59;;;;;;;3.65;2.78;;;35.30;44.30;;;;;;4998285;28;20739;-76
2023/06/13 09:01:28;;;;;;;3.65;2.50;;;35.80;44.70;;;;;;4984989;28;20196;-76
2023/06/13 09:03:59;;;;;;;6.20;2.53;;;36.20;42.70;;;;;;5010380;28;20664;-77
2023/06/13 09:06:28;;;;;;;3.75;2.58;;;36.30;45.10;;;;;;4998166;28;20199;-76
2023/06/13 09:08:57;;;;;;;5.90;2.72;;;35.70;39.30;;;;;;5005989;28;20653;-76
2023/06/13 09:11:25;;;;;;;4.95;2.42;;;34.70;41.70;;;;;;4971752;28;20219;-78
2023/06/13 09:13:55;;;;;;;2.70;2.50;;;34.50;42.40;;;;;;4969998;28;20287;-75
2023/06/13 09:16:22;;;;;;;4.68;2.90;;;34.60;44.50;;;;;;5002765;28;20207;-78
2023/06/13 09:18:51;;;;;;;2.78;2.30;;;34.70;43.00;;;;;;4984093;28;20220;-77
2023/06/13 09:21:20;;;;;;;3.03;2.30;;;34.60;41.60;;;;;;5001902;28;20185;-74
2023/06/13 09:23:50;;;;;;;3.85;2.67;;;33.50;39.20;;;;;;4984552;28;20270;-76
2023/06/13 09:26:18;;;;;;;2.67;2.47;;;33.20;41.20;;;;;;4985518;28;20201;-74
2023/06/13 09:28:48;;;;;;;5.72;2.70;;;33.60;42.60;;;;;;4984839;28;20576;-77
2023/06/13 09:31:16;;;;;;;5.63;2.42;;;32.10;37.70;;;;;;4969996;28;20636;-76
2023/06/13 09:33:45;;;;;;;3.10;2.20;;;31.60;38.70;;;;;;4983139;28;20599;-76
2023/06/13 09:36:12;;;;;;;3.30;2.63;;;31.60;41.50;;;;;;4998544;28;20668;-75
2023/06/13 09:38:41;;;;;;;3.35;2.50;;;33.30;40.20;;;;;;4981467;28;20228;-77
2023/06/13 09:41:12;;;;;;;3.65;2.38;;;32.30;38.90;;;;;;5001748;28;20196;-76
2023/06/13 09:43:40;;;;;;;2.67;2.40;;;31.00;38.80;;;;;;4995988;28;20727;-76
2023/06/13 09:46:13;;;;;;;4.35;2.90;;;30.80;40.50;;;;;;4969639;28;20201;-75
2023/06/13 09:48:47;;;;;;;3.15;2.50;;;32.50;39.00;;;;;;5004796;28;20665;-77
2023/06/13 09:51:14;;;;;;;2.58;2.38;;;32.70;39.60;;;;;;5005550;28;20555;-75
2023/06/13 09:53:46;;;;;;;2.40;2.20;;;32.20;38.80;;;;;;5006664;28;20862;-75
2023/06/13 09:56:15;;;;;;;2.80;2.28;;;33.10;37.90;;;;;;5005408;28;20619;-74
2023/06/13 09:58:42;;;;;;;5.55;2.67;;;33.20;38.70;;;;;;4988036;28;20930;-76
2023/06/13 10:01:14;;;;;;;3.08;2.38;;;32.20;37.00;;;;;;4972074;28;20236;-73
2023/06/13 10:03:43;;;;;;;2.60;2.30;;;32.10;38.50;;;;;;5006735;28;20227;-74
2023/06/13 10:06:11;;;;;;;8.70;2.90;;;32.00;35.40;;;;;;4988281;28;20963;-74
2023/06/13 10:08:39;;;;;;;7.15;2.50;;;33.20;36.90;;;;;;4989493;28;20691;-75
2023/06/13 10:11:13;;;;;;;2.47;2.25;;;31.60;34.80;;;;;;4988348;28;20618;-75
2023/06/13 10:13:50;;;;;;;6.00;2.55;;;31.40;38.40;;;;;;5003856;28;20293;-76
2023/06/13 10:16:21;;;;;;;3.00;2.50;;;32.00;37.10;;;;;;5005758;28;20218;-74
2023/06/13 10:18:51;;;;;;;4.60;2.30;;;32.20;36.10;;;;;;5004465;28;20204;-76
2023/06/13 10:21:21;;;;;;;5.45;2.45;;;31.80;37.20;;;;;;4984461;28;20189;-75
2023/06/13 10:23:50;;;;;;;6.85;2.45;;;32.20;38.10;;;;;;5002350;28;20197;-75
2023/06/13 10:26:31;;;;;;;4.70;2.78;;;33.30;35.60;;;;;;4983843;28;20189;-75
2023/06/13 10:29:26;;;;;;;6.68;2.40;;;32.30;34.40;;;;;;4988079;28;20292;-76
2023/06/13 10:32:05;;;;;;;4.00;3.00;;;32.70;35.20;;;;;;4971451;28;20200;-77
2023/06/13 10:35:00;;;;;;;3.85;2.60;;;32.70;34.10;;;;;;5012136;28;20275;-77
2023/06/13 10:38:05;;;;;;;3.80;2.58;;;32.00;35.30;;;;;;4985386;28;20220;-75
2023/06/13 10:40:48;;;;;;;6.88;2.72;;;31.40;36.40;;;;;;4993670;28;20224;-75
2023/06/13 10:43:18;;;;;;;3.20;2.50;;;31.90;34.50;;;;;;4986975;28;20700;-75
2023/06/13 10:45:45;;;;;;;4.90;2.72;;;32.90;33.40;;;;;;4988402;28;20189;-76
2023/06/13 10:48:13;;;;;;;3.58;2.55;;;32.90;35.90;;;;;;5004311;28;20201;-75
2023/06/13 10:50:43;;;;;;;3.50;2.60;;;31.50;30.90;;;;;;4985804;28;20197;-75
2023/06/13 10:53:26;;;;;;;3.08;2.45;;;31.00;34.20;;;;;;5004110;28;20327;-76
2023/06/13 10:56:03;;;;;;;3.92;3.00;;;31.20;35.10;;;;;;5003009;28;20208;-76
2023/06/13 10:58:30;;;;;;;4.85;2.63;;;31.20;31.50;;;;;;5015998;28;20243;-76
2023/06/13 11:01:22;;;;;;;3.75;2.60;;;31.80;33.70;;;;;;4987234;28;20209;-76
2023/06/13 11:03:50;;;;;;;3.58;2.45;;;32.10;33.10;;;;;;5004255;28;20283;-76
2023/06/13 11:06:17;;;;;;;3.05;2.63;;;32.20;32.90;;;;;;4971137;28;20191;-76
2023/06/13 11:08:44;;;;;;;3.85;2.83;;;32.80;30.80;;;;;;4970567;28;20992;-76
2023/06/13 11:11:11;;;;;;;3.20;2.70;;;31.30;32.70;;;;;;5002723;28;20225;-75
2023/06/13 11:13:39;;;;;;;3.17;2.80;;;31.10;32.60;;;;;;5004397;28;20652;-74
2023/06/13 11:16:37;;;;;;;3.58;2.55;;;31.10;32.70;;;;;;4999630;28;20208;-75
2023/06/13 11:19:15;;;;;;;5.35;2.70;;;30.40;30.00;;;;;;4982684;28;20260;-75
2023/06/13 11:21:45;;;;;;;4.72;2.70;;;31.50;31.70;;;;;;4986617;28;20244;-75
2023/06/13 11:24:16;;;;;;;3.05;2.35;;;31.10;32.40;;;;;;4987053;28;20217;-79
2023/06/13 11:26:47;;;;;;;3.55;2.60;;;30.60;33.70;;;;;;5004180;28;20196;-78
2023/06/13 11:29:15;;;;;;;3.15;2.60;;;31.00;33.30;;;;;;5011946;28;20680;-77
2023/06/13 11:31:42;;;;;;;7.28;2.72;;;30.80;33.00;;;;;;5005138;28;20597;-77
2023/06/13 11:34:17;;;;;;;2.95;2.65;;;31.20;32.80;;;;;;4982817;28;20224;-77
2023/06/13 11:36:46;;;;;;;2.75;2.45;;;31.30;32.60;;;;;;5003718;28;20580;-76
2023/06/13 11:39:22;;;;;;;3.53;3.05;;;31.10;33.00;;;;;;5004192;28;20201;-76
2023/06/13 11:41:49;;;;;;;2.83;1.95;;;30.70;32.10;;;;;;4986234;28;20259;-76
2023/06/13 11:44:18;;;;;;;3.45;2.40;;;30.70;32.60;;;;;;5004792;28;20747;-74
2023/06/13 11:46:46;;;;;;;3.05;2.75;;;29.90;30.00;;;;;;5005576;28;20189;-76
2023/06/13 11:49:14;;;;;;;2.88;2.58;;;29.80;31.90;;;;;;4982574;28;20204;-76
2023/06/13 11:51:44;;;;;;;4.82;2.80;;;31.40;32.10;;;;;;4986044;28;20677;-75
2023/06/13 11:54:11;;;;;;;3.13;2.50;;;31.80;32.30;;;;;;5004776;28;20266;-75
2023/06/13 11:56:52;;;;;;;2.50;2.13;;;32.60;30.00;;;;;;5004256;28;20201;-76
2023/06/13 11:59:20;;;;;;;4.75;2.47;;;31.10;31.30;;;;;;4984853;28;20205;-76
2023/06/13 12:01:49;;;;;;;2.50;2.30;;;30.60;32.40;;;;;;4999369;28;20203;-75
2023/06/13 12:04:17;;;;;;;3.38;2.22;;;31.00;31.60;;;;;;5009384;28;20228;-75
2023/06/13 12:06:44;;;;;;;4.00;2.50;;;32.00;51.40;;;;;;5011114;28;20193;-77
2023/06/13 12:09:14;;;;;;;5.22;2.50;;;31.60;30.00;;;;;;4981972;28;20205;-76
2023/06/13 12:11:42;;;;;;;6.30;2.97;;;31.10;32.00;;;;;;5004270;28;20629;-76
2023/06/13 12:14:09;;;;;;;3.58;2.67;;;30.40;31.60;;;;;;4984595;28;20205;-75
2023/06/13 12:16:38;;;;;;;2.95;2.47;;;30.50;32.00;;;;;;4985915;28;20204;-75
2023/06/13 12:19:07;;;;;;;5.05;2.88;;;30.50;33.30;;;;;;4986527;28;20201;-75
2023/06/13 12:21:36;;;;;;;2.95;2.42;;;31.20;32.10;;;;;;5001637;28;20197;-77
2023/06/13 12:24:08;;;;;;;3.70;2.50;;;31.20;32.00;;;;;;4981201;28;20288;-75
2023/06/13 12:26:41;;;;;;;3.33;2.60;;;30.10;32.10;;;;;;5005166;28;20750;-75
2023/06/13 12:29:11;;;;;;;3.25;2.47;;;30.40;32.80;;;;;;4987230;28;20615;-74
2023/06/13 12:31:42;;;;;;;3.13;2.65;;;30.20;31.00;;;;;;4984148;28;20201;-77
2023/06/13 12:34:29;;;;;;;5.47;3.28;;;29.50;32.90;;;;;;4986318;28;20201;-79
2023/06/13 12:37:02;;;;;;;2.45;2.25;;;29.00;33.60;;;;;;4986591;28;20197;-75
2023/06/13 12:39:31;;;;;;;3.50;2.60;;;29.20;33.70;;;;;;5006163;28;20197;-77
2023/06/13 12:42:07;;;;;;;5.10;2.58;;;29.10;32.50;;;;;;4971311;28;20748;-77
2023/06/13 12:44:35;;;;;;;4.97;3.08;;;28.50;33.20;;;;;;4985802;28;20212;-77
2023/06/13 12:47:04;;;;;;;4.32;2.65;;;28.40;33.70;;;;;;4985305;28;20589;-76
2023/06/13 12:49:35;;;;;;;4.07;2.85;;;28.40;34.40;;;;;;4981007;28;20196;-77
2023/06/13 12:52:14;;;;;;;8.40;2.90;;;28.40;34.00;;;;;;4994863;28;20201;-78
2023/06/13 12:54:41;;;;;;;5.50;2.90;;;28.20;35.00;;;;;;5002349;28;20302;-79
2023/06/13 12:57:11;;;;;;;3.42;2.50;;;28.00;33.90;;;;;;4999641;28;20690;-77
2023/06/13 12:59:41;;;;;;;3.35;2.35;;;27.70;34.40;;;;;;5004171;28;20197;-80
2023/06/13 13:02:13;;;;;;;4.75;2.80;;;27.90;35.20;;;;;;5004673;28;20787;-78